createdAt,value
2022-11-26T00:01:43.406Z,23.03
2022-11-26T00:04:10.164Z,26.50
2022-11-26T00:06:36.703Z,26.07
2022-11-26T00:09:03.222Z,44.87
2022-11-26T00:11:29.768Z,31.43
2022-11-26T00:13:56.271Z,43.40
2022-11-26T00:16:22.748Z,31.10
2022-11-26T00:18:49.268Z,29.87
2022-11-26T00:21:15.788Z,32.93
2022-11-26T00:23:42.327Z,46.30
2022-11-26T00:26:08.789Z,27.70
2022-11-26T00:28:35.522Z,28.67
2022-11-26T00:31:02.087Z,31.33
2022-11-26T00:33:28.696Z,51.53
2022-11-26T00:35:55.155Z,22.70
2022-11-26T00:38:21.629Z,25.13
2022-11-26T00:40:48.110Z,24.97
2022-11-26T00:43:14.585Z,43.13
2022-11-26T00:45:41.272Z,22.37
2022-11-26T00:48:07.927Z,22.00
2022-11-26T00:50:34.389Z,24.20
2022-11-26T00:53:00.888Z,30.27
2022-11-26T00:55:27.440Z,23.87
2022-11-26T00:57:53.956Z,17.43
2022-11-26T01:00:20.413Z,29.37
2022-11-26T01:02:46.979Z,33.77
2022-11-26T01:05:13.507Z,21.63
2022-11-26T01:07:40.082Z,30.53
2022-11-26T01:10:06.678Z,46.57
2022-11-26T01:12:33.141Z,19.10
2022-11-26T01:14:59.665Z,31.90
2022-11-26T01:17:26.122Z,28.67
2022-11-26T01:19:52.798Z,31.60
2022-11-26T01:22:19.847Z,14.50
2022-11-26T01:24:46.334Z,32.97
2022-11-26T01:27:12.866Z,29.20
2022-11-26T01:29:39.351Z,16.53
2022-11-26T01:32:05.925Z,29.00
2022-11-26T01:34:32.501Z,28.63
2022-11-26T01:36:58.972Z,19.50
2022-11-26T01:39:25.458Z,23.30
2022-11-26T01:41:51.914Z,26.13
2022-11-26T01:44:18.559Z,24.33
2022-11-26T01:46:45.073Z,25.37
2022-11-26T01:49:11.606Z,21.07
2022-11-26T01:51:38.213Z,15.80
2022-11-26T01:54:04.703Z,30.23
2022-11-26T01:56:31.253Z,21.67
2022-11-26T01:58:57.831Z,20.13
2022-11-26T02:01:24.406Z,11.60
2022-11-26T02:03:50.994Z,19.03
2022-11-26T02:06:17.486Z,17.40
2022-11-26T02:08:44.005Z,12.70
2022-11-26T02:11:10.531Z,16.67
2022-11-26T02:13:37.024Z,18.60
2022-11-26T02:16:03.868Z,16.67
2022-11-26T02:18:30.416Z,16.80
2022-11-26T02:20:56.899Z,20.73
2022-11-26T02:23:23.469Z,15.40
2022-11-26T02:25:49.960Z,18.07
2022-11-26T02:28:17.023Z,17.33
2022-11-26T02:30:43.491Z,18.27
2022-11-26T02:33:09.989Z,14.77
2022-11-26T02:35:36.519Z,13.47
2022-11-26T02:38:03.047Z,22.73
2022-11-26T02:40:29.512Z,12.87
2022-11-26T02:42:56.134Z,19.83
2022-11-26T02:45:25.955Z,21.27
2022-11-26T02:47:52.541Z,25.30
2022-11-26T02:50:19.007Z,29.67
2022-11-26T02:52:45.572Z,15.97
2022-11-26T02:55:12.072Z,18.33
2022-11-26T02:57:38.534Z,28.03
2022-11-26T03:00:05.355Z,17.57
2022-11-26T03:02:31.819Z,10.60
2022-11-26T03:04:58.318Z,22.13
2022-11-26T03:07:24.805Z,27.57
2022-11-26T03:09:51.318Z,37.47
2022-11-26T03:12:17.895Z,27.53
2022-11-26T03:14:44.430Z,22.37
2022-11-26T03:17:10.916Z,15.90
2022-11-26T03:19:37.442Z,41.33
2022-11-26T03:22:03.903Z,30.87
2022-11-26T03:24:30.451Z,37.23
2022-11-26T03:26:56.926Z,21.43
2022-11-26T03:29:23.435Z,29.20
2022-11-26T03:31:50.037Z,27.53
2022-11-26T03:34:16.551Z,29.00
2022-11-26T03:36:43.059Z,42.47
2022-11-26T03:39:09.606Z,42.23
2022-11-26T03:41:36.076Z,23.93
2022-11-26T03:44:02.576Z,44.37
2022-11-26T03:46:29.042Z,44.37
2022-11-26T03:48:55.559Z,29.30
2022-11-26T03:51:23.073Z,29.10
2022-11-26T03:53:49.791Z,44.70
2022-11-26T03:56:16.256Z,26.67
2022-11-26T03:58:42.748Z,47.23
2022-11-26T04:01:09.345Z,42.80
2022-11-26T04:03:35.866Z,27.10
2022-11-26T04:06:02.335Z,32.20
2022-11-26T04:08:28.907Z,32.90
2022-11-26T04:10:55.407Z,41.30
2022-11-26T04:13:21.931Z,44.83
2022-11-26T04:15:48.411Z,37.40
2022-11-26T04:18:14.907Z,50.00
2022-11-26T04:20:41.391Z,30.73
2022-11-26T04:23:07.872Z,36.57
2022-11-26T04:25:34.436Z,49.20
2022-11-26T04:28:00.937Z,33.27
2022-11-26T04:30:29.847Z,26.70
2022-11-26T04:32:56.531Z,27.80
2022-11-26T04:35:22.985Z,34.43
2022-11-26T04:37:49.559Z,35.37
2022-11-26T04:40:16.210Z,35.43
2022-11-26T04:42:42.714Z,42.57
2022-11-26T04:45:09.546Z,51.47
2022-11-26T04:47:40.068Z,33.53
2022-11-26T04:50:10.095Z,27.10
2022-11-26T04:52:36.600Z,35.43
2022-11-26T04:55:03.083Z,25.33
2022-11-26T04:57:29.579Z,49.67
2022-11-26T04:59:56.035Z,27.70
2022-11-26T05:02:22.581Z,42.23
2022-11-26T05:04:49.229Z,33.17
2022-11-26T05:07:15.720Z,32.90
2022-11-26T05:09:42.248Z,44.27
2022-11-26T05:12:08.711Z,45.97
2022-11-26T05:14:35.277Z,38.17
2022-11-26T05:17:01.885Z,25.57
2022-11-26T05:19:28.405Z,22.63
2022-11-26T05:21:54.879Z,32.27
2022-11-26T05:24:21.359Z,32.03
2022-11-26T05:26:51.154Z,32.97
2022-11-26T05:29:20.190Z,36.20
2022-11-26T05:31:46.826Z,24.20
2022-11-26T05:34:13.378Z,40.77
2022-11-26T05:36:39.832Z,37.73
2022-11-26T05:39:06.413Z,30.33
2022-11-26T05:41:32.866Z,35.00
2022-11-26T05:43:59.381Z,34.10
2022-11-26T05:46:26.598Z,26.50
2022-11-26T05:48:53.080Z,26.40
2022-11-26T05:51:19.597Z,36.43
2022-11-26T05:53:46.064Z,38.47
2022-11-26T05:56:12.532Z,31.83
2022-11-26T05:58:39.009Z,31.87
2022-11-26T06:01:05.483Z,28.50
2022-11-26T06:03:32.038Z,37.47
2022-11-26T06:05:58.545Z,39.20
2022-11-26T06:08:25.015Z,28.93
2022-11-26T06:10:51.606Z,32.83
2022-11-26T06:13:18.274Z,48.23
2022-11-26T06:15:44.745Z,53.17
2022-11-26T06:18:11.225Z,32.93
2022-11-26T06:20:37.696Z,29.10
2022-11-26T06:23:04.330Z,43.57
2022-11-26T06:25:30.811Z,28.37
2022-11-26T06:27:57.337Z,43.83
2022-11-26T06:30:23.819Z,36.70
2022-11-26T06:32:50.350Z,42.47
2022-11-26T06:35:16.819Z,50.90
2022-11-26T06:37:43.320Z,56.83
2022-11-26T06:40:09.803Z,51.10
2022-11-26T06:42:36.316Z,30.17
2022-11-26T06:45:02.806Z,43.80
2022-11-26T06:47:29.280Z,31.20
2022-11-26T06:49:55.743Z,47.37
2022-11-26T06:52:22.290Z,42.53
2022-11-26T06:54:48.757Z,43.27
2022-11-26T06:57:15.241Z,37.37
2022-11-26T06:59:41.721Z,48.90
2022-11-26T07:02:08.270Z,35.03
2022-11-26T07:04:34.897Z,47.33
2022-11-26T07:07:01.401Z,34.37
2022-11-26T07:09:27.906Z,34.37
2022-11-26T07:11:54.457Z,32.10
2022-11-26T07:14:22.392Z,38.83
2022-11-26T07:16:48.889Z,34.93
2022-11-26T07:19:15.385Z,43.77
2022-11-26T07:21:42.088Z,42.03
2022-11-26T07:24:08.606Z,42.23
2022-11-26T07:26:35.104Z,23.63
2022-11-26T07:29:01.650Z,37.97
2022-11-26T07:31:28.264Z,28.87
2022-11-26T07:33:54.803Z,38.30
2022-11-26T07:36:21.463Z,34.50
2022-11-26T07:38:47.984Z,46.70
2022-11-26T07:41:14.521Z,49.20
2022-11-26T07:43:41.081Z,35.00
2022-11-26T07:46:07.597Z,30.17
2022-11-26T07:48:34.104Z,45.63
2022-11-26T07:51:00.585Z,43.10
2022-11-26T07:53:27.210Z,44.43
2022-11-26T07:55:53.763Z,35.70
2022-11-26T07:58:20.251Z,34.80
2022-11-26T08:00:49.700Z,44.47
2022-11-26T08:03:19.744Z,51.20
2022-11-26T08:05:46.310Z,48.30
2022-11-26T08:08:12.883Z,34.17
2022-11-26T08:10:39.911Z,39.67
2022-11-26T08:13:06.454Z,56.50
2022-11-26T08:15:34.194Z,28.00
2022-11-26T08:18:00.730Z,39.50
2022-11-26T08:20:29.021Z,41.93
2022-11-26T08:22:55.915Z,36.43
2022-11-26T08:25:22.375Z,49.77
2022-11-26T08:27:49.053Z,38.00
2022-11-26T08:30:15.641Z,44.63
2022-11-26T08:32:42.123Z,42.17
2022-11-26T08:35:08.587Z,38.03
2022-11-26T08:37:35.093Z,55.83
2022-11-26T08:40:01.649Z,44.30
2022-11-26T08:42:28.155Z,36.33
2022-11-26T08:44:54.906Z,43.00
2022-11-26T08:47:21.459Z,46.57
2022-11-26T08:49:49.575Z,44.23
2022-11-26T08:52:16.128Z,59.50
2022-11-26T08:54:45.361Z,44.27
2022-11-26T08:57:12.165Z,41.00
2022-11-26T08:59:38.665Z,28.77
2022-11-26T09:02:05.165Z,30.07
2022-11-26T09:04:31.910Z,31.80
2022-11-26T09:06:58.457Z,44.43
2022-11-26T09:09:25.212Z,42.20
2022-11-26T09:11:51.718Z,37.83
2022-11-26T09:14:18.254Z,31.27
2022-11-26T09:16:44.780Z,56.10
2022-11-26T09:19:11.317Z,28.80
2022-11-26T09:21:37.849Z,39.40
2022-11-26T09:24:04.452Z,34.97
2022-11-26T09:26:31.060Z,52.60
2022-11-26T09:28:57.574Z,33.67
2022-11-26T09:31:24.396Z,36.20
2022-11-26T09:33:50.927Z,35.37
2022-11-26T09:36:17.469Z,37.13
2022-11-26T09:38:43.991Z,31.93
2022-11-26T09:41:10.452Z,22.50
2022-11-26T09:43:36.986Z,26.30
2022-11-26T09:46:03.541Z,27.87
2022-11-26T09:48:30.257Z,36.43
2022-11-26T09:50:56.725Z,36.20
2022-11-26T09:53:23.315Z,24.47
2022-11-26T09:55:49.874Z,28.07
2022-11-26T09:58:16.368Z,31.87
2022-11-26T10:00:43.735Z,26.17
2022-11-26T10:03:10.342Z,27.53
2022-11-26T10:05:36.904Z,18.73
2022-11-26T10:08:03.575Z,23.00
2022-11-26T10:10:30.097Z,42.40
2022-11-26T10:13:17.966Z,21.73
2022-11-26T10:15:43.062Z,22.53
2022-11-26T10:18:09.612Z,24.07
2022-11-26T10:20:36.106Z,26.40
2022-11-26T10:23:02.681Z,30.73
2022-11-26T10:25:29.171Z,25.37
2022-11-26T10:27:56.101Z,24.67
2022-11-26T10:30:22.648Z,39.27
2022-11-26T10:32:49.205Z,31.27
2022-11-26T10:35:15.692Z,26.63
2022-11-26T10:37:42.180Z,17.80
2022-11-26T10:40:08.699Z,26.77
2022-11-26T10:42:35.228Z,28.17
2022-11-26T10:45:01.717Z,15.27
2022-11-26T10:47:28.356Z,19.90
2022-11-26T10:49:55.084Z,15.17
2022-11-26T10:52:21.567Z,16.23
2022-11-26T10:54:48.293Z,19.67
2022-11-26T10:57:14.768Z,24.60
2022-11-26T10:59:41.915Z,21.67
2022-11-26T11:02:08.682Z,18.40
2022-11-26T11:04:35.199Z,24.33
2022-11-26T11:07:01.733Z,25.23
2022-11-26T11:09:28.299Z,18.47
2022-11-26T11:11:54.816Z,22.40
2022-11-26T11:14:21.430Z,17.50
2022-11-26T11:16:47.951Z,12.87
2022-11-26T11:19:15.521Z,12.90
2022-11-26T11:21:47.755Z,12.70
2022-11-26T11:24:14.751Z,16.37
2022-11-26T11:26:41.239Z,21.57
2022-11-26T11:29:07.717Z,20.73
2022-11-26T11:31:34.343Z,20.77
2022-11-26T11:34:00.864Z,31.20
2022-11-26T11:36:27.539Z,27.13
2022-11-26T11:38:54.157Z,17.03
2022-11-26T11:41:20.638Z,6.23
2022-11-26T11:43:47.143Z,16.10
2022-11-26T11:46:13.710Z,11.30
2022-11-26T11:48:43.271Z,16.30
2022-11-26T11:51:09.772Z,16.27
2022-11-26T11:53:36.298Z,12.17
2022-11-26T11:56:03.051Z,9.73
2022-11-26T11:58:29.587Z,23.30
2022-11-26T12:00:57.399Z,18.60
2022-11-26T12:03:23.968Z,16.73
2022-11-26T12:05:50.742Z,21.67
2022-11-26T12:08:17.338Z,21.37
2022-11-26T12:10:43.850Z,18.43
2022-11-26T12:13:10.323Z,23.40
2022-11-26T12:15:36.968Z,15.17
2022-11-26T12:18:03.460Z,13.93
2022-11-26T12:20:29.981Z,15.53
2022-11-26T12:22:58.894Z,10.53
2022-11-26T12:25:25.417Z,21.77
2022-11-26T12:27:52.492Z,17.63
2022-11-26T12:30:18.960Z,16.33
2022-11-26T12:32:45.817Z,16.10
2022-11-26T12:35:12.352Z,14.53
2022-11-26T12:37:38.963Z,12.33
2022-11-26T12:40:05.588Z,19.83
2022-11-26T12:42:32.092Z,6.27
2022-11-26T12:44:58.699Z,14.10
2022-11-26T12:47:25.228Z,24.33
2022-11-26T12:49:51.711Z,10.40
2022-11-26T12:52:18.222Z,13.30
2022-11-26T12:54:44.706Z,17.53
2022-11-26T12:57:11.286Z,12.07
2022-11-26T12:59:37.783Z,15.43
2022-11-26T13:02:04.303Z,9.50
2022-11-26T13:04:38.441Z,20.00
2022-11-26T13:07:05.098Z,18.33
2022-11-26T13:09:31.607Z,16.80
2022-11-26T13:11:58.170Z,6.47
2022-11-26T13:14:24.642Z,11.03
2022-11-26T13:16:51.149Z,17.07
2022-11-26T13:19:18.186Z,12.50
2022-11-26T13:21:44.750Z,6.07
2022-11-26T13:24:16.008Z,8.77
2022-11-26T13:26:45.110Z,15.67
2022-11-26T13:29:11.627Z,11.07
2022-11-26T13:31:38.190Z,24.07
2022-11-26T13:34:04.784Z,9.90
2022-11-26T13:36:31.311Z,7.47
2022-11-26T13:38:58.169Z,11.90
2022-11-26T13:41:24.678Z,15.87
2022-11-26T13:43:53.464Z,17.03
2022-11-26T13:46:22.372Z,15.70
2022-11-26T13:48:49.107Z,9.80
2022-11-26T13:51:15.650Z,13.87
2022-11-26T13:53:42.189Z,21.00
2022-11-26T13:56:08.712Z,11.07
2022-11-26T13:58:35.262Z,21.77
2022-11-26T14:01:01.747Z,9.73
2022-11-26T14:03:28.266Z,17.67
2022-11-26T14:05:57.240Z,11.70
2022-11-26T14:08:23.758Z,5.10
2022-11-26T14:10:50.266Z,16.60
2022-11-26T14:13:16.809Z,5.13
2022-11-26T14:15:43.355Z,12.10
2022-11-26T14:18:12.363Z,26.67
2022-11-26T14:20:38.878Z,26.17
2022-11-26T14:23:05.974Z,11.60
2022-11-26T14:25:32.511Z,10.23
2022-11-26T14:28:01.751Z,17.57
2022-11-26T14:30:28.344Z,12.17
2022-11-26T14:32:54.917Z,38.00
2022-11-26T14:35:21.420Z,22.50
2022-11-26T14:37:47.916Z,18.63
2022-11-26T14:40:14.392Z,9.70
2022-11-26T14:42:41.055Z,10.67
2022-11-26T14:45:07.547Z,14.40
2022-11-26T14:47:34.170Z,15.33
2022-11-26T14:50:00.697Z,24.57
2022-11-26T14:52:27.490Z,19.90
2022-11-26T14:54:54.015Z,7.93
2022-11-26T14:57:20.544Z,18.47
2022-11-26T14:59:47.068Z,12.10
2022-11-26T15:02:13.632Z,12.77
2022-11-26T15:04:42.171Z,6.57
2022-11-26T15:07:08.831Z,32.57
2022-11-26T15:09:35.366Z,19.37
2022-11-26T15:12:01.944Z,14.73
2022-11-26T15:14:29.785Z,17.50
2022-11-26T15:16:56.498Z,32.20
2022-11-26T15:19:23.040Z,16.77
2022-11-26T15:21:49.546Z,13.13
2022-11-26T15:24:16.097Z,28.73
2022-11-26T15:26:42.583Z,18.90
2022-11-26T15:29:12.775Z,21.13
2022-11-26T15:31:39.431Z,11.97
2022-11-26T15:34:05.933Z,15.47
2022-11-26T15:36:32.496Z,14.20
2022-11-26T15:38:59.005Z,11.80
2022-11-26T15:41:25.529Z,13.87
2022-11-26T15:43:52.019Z,10.73
2022-11-26T15:46:18.657Z,16.73
2022-11-26T15:48:53.489Z,15.57
2022-11-26T15:51:20.301Z,10.80
2022-11-26T15:53:46.847Z,16.50
2022-11-26T15:56:13.331Z,8.07
2022-11-26T15:58:39.918Z,16.70
2022-11-26T16:01:06.518Z,14.53
2022-11-26T16:03:33.028Z,21.53
2022-11-26T16:05:59.497Z,29.53
2022-11-26T16:08:26.041Z,12.63
2022-11-26T16:10:52.531Z,22.63
2022-11-26T16:13:19.541Z,21.73
2022-11-26T16:15:46.024Z,8.73
2022-11-26T16:18:12.516Z,21.83
2022-11-26T16:20:39.024Z,19.30
2022-11-26T16:23:05.502Z,12.37
2022-11-26T16:25:32.970Z,22.67
2022-11-26T16:27:59.440Z,17.30
2022-11-26T16:30:26.002Z,22.70
2022-11-26T16:32:53.169Z,30.90
2022-11-26T16:35:44.227Z,15.23
2022-11-26T16:38:06.255Z,21.80
2022-11-26T16:40:34.156Z,11.90
2022-11-26T16:43:00.623Z,22.70
2022-11-26T16:45:27.111Z,22.13
2022-11-26T16:47:53.588Z,20.30
2022-11-26T16:50:20.100Z,9.47
2022-11-26T16:52:46.688Z,14.30
2022-11-26T16:55:13.740Z,11.33
2022-11-26T16:57:40.210Z,11.30
2022-11-26T17:00:06.691Z,12.43
2022-11-26T17:02:33.599Z,16.93
2022-11-26T17:05:00.211Z,16.03
2022-11-26T17:07:26.758Z,17.23
2022-11-26T17:09:53.302Z,16.00
2022-11-26T17:12:19.834Z,14.70
2022-11-26T17:14:46.343Z,22.23
2022-11-26T17:17:12.940Z,18.00
2022-11-26T17:19:41.624Z,18.20
2022-11-26T17:22:08.571Z,16.87
2022-11-26T17:24:35.118Z,23.90
2022-11-26T17:27:01.711Z,15.87
2022-11-26T17:29:28.185Z,14.07
2022-11-26T17:31:54.666Z,21.33
2022-11-26T17:34:21.245Z,24.47
2022-11-26T17:36:47.726Z,16.20
2022-11-26T17:39:14.412Z,20.30
2022-11-26T17:41:40.941Z,19.60
2022-11-26T17:44:07.405Z,12.70
2022-11-26T17:46:48.055Z,19.63
2022-11-26T17:49:20.497Z,18.00
2022-11-26T17:51:47.011Z,14.83
2022-11-26T17:54:13.508Z,25.07
2022-11-26T17:56:40.016Z,13.43
2022-11-26T17:59:06.499Z,21.67
2022-11-26T18:01:33.201Z,22.00
2022-11-26T18:03:59.705Z,10.83
2022-11-26T18:06:26.266Z,14.20
2022-11-26T18:08:52.795Z,16.67
2022-11-26T18:11:19.424Z,23.80
2022-11-26T18:13:45.971Z,13.00
2022-11-26T18:16:12.508Z,20.40
2022-11-26T18:18:39.184Z,18.13
2022-11-26T18:21:05.687Z,14.20
2022-11-26T18:23:32.154Z,35.33
2022-11-26T18:25:58.681Z,28.10
2022-11-26T18:28:25.159Z,19.90
2022-11-26T18:30:51.763Z,15.23
2022-11-26T18:33:18.312Z,18.27
2022-11-26T18:35:44.858Z,9.03
2022-11-26T18:38:11.473Z,13.07
2022-11-26T18:40:38.051Z,20.23
2022-11-26T18:43:04.521Z,10.17
2022-11-26T18:45:32.393Z,21.83
2022-11-26T18:47:58.881Z,15.83
2022-11-26T18:50:27.279Z,23.33
2022-11-26T18:52:55.873Z,19.03
2022-11-26T18:55:22.413Z,18.47
2022-11-26T18:57:48.913Z,14.97
2022-11-26T19:00:15.398Z,19.77
2022-11-26T19:02:42.142Z,17.80
2022-11-26T19:05:08.663Z,19.80
2022-11-26T19:07:35.213Z,17.03
2022-11-26T19:10:01.779Z,11.40
2022-11-26T19:12:28.280Z,23.03
2022-11-26T19:14:54.887Z,11.00
2022-11-26T19:17:21.413Z,15.80
2022-11-26T19:19:47.903Z,12.60
2022-11-26T19:22:14.414Z,25.37
2022-11-26T19:24:40.923Z,14.60
2022-11-26T19:27:07.450Z,18.60
2022-11-26T19:29:33.951Z,11.37
2022-11-26T19:32:00.440Z,9.73
2022-11-26T19:34:26.932Z,13.73
2022-11-26T19:36:53.507Z,10.33
2022-11-26T19:39:20.151Z,11.40
2022-11-26T19:41:46.680Z,11.17
2022-11-26T19:44:13.158Z,13.10
2022-11-26T19:46:41.145Z,14.43
2022-11-26T19:49:07.947Z,13.07
2022-11-26T19:51:34.483Z,12.23
2022-11-26T19:54:00.967Z,20.33
2022-11-26T19:56:27.515Z,12.17
2022-11-26T19:58:54.283Z,13.47
2022-11-26T20:01:20.901Z,13.73
2022-11-26T20:03:47.563Z,7.07
2022-11-26T20:06:14.220Z,11.00
2022-11-26T20:08:40.717Z,11.03
2022-11-26T20:11:07.218Z,7.47
2022-11-26T20:13:34.642Z,13.67
2022-11-26T20:16:01.251Z,13.30
2022-11-26T20:18:27.717Z,6.10
2022-11-26T20:20:54.186Z,20.03
2022-11-26T20:23:20.698Z,17.77
2022-11-26T20:25:47.259Z,11.97
2022-11-26T20:28:13.774Z,11.07
2022-11-26T20:30:40.364Z,12.17
2022-11-26T20:33:07.077Z,9.80
2022-11-26T20:35:33.556Z,10.63
2022-11-26T20:38:00.081Z,11.20
2022-11-26T20:40:26.588Z,18.77
2022-11-26T20:42:53.069Z,12.07
2022-11-26T20:45:19.619Z,14.60
2022-11-26T20:47:46.170Z,15.83
2022-11-26T20:50:12.734Z,10.30
2022-11-26T20:52:39.334Z,12.23
2022-11-26T20:55:05.816Z,26.57
2022-11-26T20:57:32.302Z,11.50
2022-11-26T20:59:58.778Z,14.37
2022-11-26T21:02:25.371Z,11.33
2022-11-26T21:04:51.900Z,12.13
2022-11-26T21:07:18.472Z,16.20
2022-11-26T21:09:46.261Z,11.90
2022-11-26T21:12:12.775Z,11.80
2022-11-26T21:14:39.274Z,16.40
2022-11-26T21:17:06.057Z,10.97
2022-11-26T21:19:32.654Z,13.37
2022-11-26T21:21:59.133Z,14.80
2022-11-26T21:24:25.852Z,14.00
2022-11-26T21:26:52.382Z,14.77
2022-11-26T21:29:18.956Z,23.53
2022-11-26T21:31:45.457Z,12.30
2022-11-26T21:34:12.075Z,12.93
2022-11-26T21:36:38.634Z,13.13
2022-11-26T21:39:05.211Z,16.00
2022-11-26T21:41:34.813Z,15.23
2022-11-26T21:44:03.466Z,15.03
2022-11-26T21:46:33.712Z,14.37
2022-11-26T21:49:04.306Z,12.30
2022-11-26T21:51:30.798Z,25.90
2022-11-26T21:53:57.420Z,9.37
2022-11-26T21:56:23.912Z,13.43
2022-11-26T21:58:50.473Z,12.47
2022-11-26T22:01:16.978Z,8.77
2022-11-26T22:03:43.579Z,21.23
2022-11-26T22:06:10.329Z,10.87
2022-11-26T22:08:36.973Z,12.20
2022-11-26T22:11:03.452Z,7.93
2022-11-26T22:13:30.016Z,7.00
2022-11-26T22:15:56.539Z,7.23
2022-11-26T22:18:23.156Z,9.70
2022-11-26T22:20:49.656Z,11.87
2022-11-26T22:23:16.184Z,21.57
2022-11-26T22:25:42.653Z,11.73
2022-11-26T22:28:09.147Z,4.60
2022-11-26T22:30:35.799Z,10.47
2022-11-26T22:33:03.710Z,12.00
2022-11-26T22:35:30.234Z,10.70
2022-11-26T22:37:56.682Z,13.67
2022-11-26T22:40:23.179Z,18.23
2022-11-26T22:42:49.692Z,16.60
2022-11-26T22:45:16.225Z,5.93
2022-11-26T22:47:42.692Z,11.30
2022-11-26T22:50:09.158Z,12.50
2022-11-26T22:52:35.670Z,12.17
2022-11-26T22:55:02.194Z,4.20
2022-11-26T22:57:28.687Z,7.43
2022-11-26T22:59:55.175Z,12.23
2022-11-26T23:02:21.691Z,10.90
2022-11-26T23:04:48.187Z,9.97
2022-11-26T23:07:14.761Z,7.40
2022-11-26T23:09:46.598Z,16.93
2022-11-26T23:12:13.511Z,7.10
2022-11-26T23:14:40.003Z,9.30
2022-11-26T23:17:06.518Z,7.23
2022-11-26T23:19:33.062Z,5.73
2022-11-26T23:21:59.588Z,22.10
2022-11-26T23:24:27.232Z,7.40
2022-11-26T23:26:53.727Z,8.50
2022-11-26T23:29:20.222Z,11.97
2022-11-26T23:31:46.885Z,6.80
2022-11-26T23:34:13.395Z,5.10
2022-11-26T23:36:39.890Z,8.70
2022-11-26T23:39:06.393Z,8.03
2022-11-26T23:41:32.927Z,5.43
2022-11-26T23:43:59.458Z,9.13
2022-11-26T23:46:26.105Z,7.50
2022-11-26T23:48:52.683Z,4.90
2022-11-26T23:51:19.150Z,9.53
2022-11-26T23:53:45.677Z,5.83
2022-11-26T23:56:12.209Z,6.50
2022-11-26T23:58:38.716Z,7.10
